Aeroporto :
LOGIN :

Iscrizione | Disclaimer

   EN    FR    IT 

 










Sommario :    VFR   VFR Marginale   IFR   IFR Intensivo   IFR Molto Intensivo
Visibilità : 
Base nubi : 
>= 8 km
>= 3000ft
5 / 8 km
1000 / 3000 ft
1500m / 5 km
500 / 1000 ft
800 / 1500m
200 / 500 ft
< 800m
< 200 ft
Simboli :   Temporali  Nebbia  Neve Forte  Precipitazioni Forti  Vento > 20 kt
SIGMETs :   Varie  Temporali  Ghiacco  Turbolenza  Onda orograficha  Ceneri Vulcaniche






- Altitudine del aeroporto : 1249 ft


ETSN - Neuburg AB

ULTIMO METAR :
  • 200902Z 14001KT 3700 VCFG BKN043 M01/M02 Q1045 GRN GRN BECMG BLU

METARs OBSOLETI :
  • 200843Z 00000KT 3000 VCFG BKN045 M02/M02 Q1045 YLO BLU TEMPO YLO
  • 200820Z 00000KT 1600 VCFG SCT045 M02/M03 Q1044 YLO BLU TEMPO YLO
  • 200759Z VRB01KT 1600 VCFG FEW045 M02/M03 Q1044 YLO BLU TEMPO YLO
  • 200720Z 11003KT 8000 VCFG SCT045 M02/M02 Q1044 BLU+BLU TEMPO YLO
  • 200620Z 02003KT 8000 VCFG BKN050 M01/M02 Q1043 BLU BLU TEMPO YLO

TAF COR TAF ETSN
Valido dal 20 a 09 ore il 20 a 18 ore UTC


200858Z 2009/2018 05005KT 3000 BR BKN040
BECMG 2009/2011 06005KT 9999 NSW FEW015 BKN040 BY ETGL



MetMap, La meteo Aeronautica in un colpo d'occhio ! - Copyright ORBIFLY Dicembre 2007 - Disclaimer

ORBIFLY MET'MAP TEAM :

Programmazione e sviluppo : Alexandra Zaïnal
Concezione : Baudouin d'Aumeries
Aiuto per la programmazione : Marc-Olivier Méhu
Supporto tecnico e logistico : Manuel Goepfert
Aiuto per la traduzione : Arnaldo La Scala

Contatto : metmap@orbifly.com




FONTI E CREDITI :

   NOAA